createdAt,value
2018-05-27T00:02:07.803Z,101688.47
2018-05-27T00:04:42.634Z,101687.33
2018-05-27T00:07:17.902Z,101685.43
2018-05-27T00:09:53.118Z,101686.63
2018-05-27T00:12:28.058Z,101684.95
2018-05-27T00:15:02.667Z,101680.84
2018-05-27T00:17:37.390Z,101673.55
2018-05-27T00:20:12.760Z,101675.49
2018-05-27T00:22:47.329Z,101665.78
2018-05-27T00:25:21.460Z,101666.03
2018-05-27T00:27:56.456Z,101662.29
2018-05-27T00:30:31.696Z,101655.94
2018-05-27T00:33:06.337Z,101650.36
2018-05-27T00:35:41.052Z,101650.20
2018-05-27T00:38:15.713Z,101648.16
2018-05-27T00:40:50.489Z,101647.56
2018-05-27T00:43:25.507Z,101635.40
2018-05-27T00:46:00.835Z,101641.03
2018-05-27T00:48:35.460Z,101630.55
2018-05-27T00:51:10.617Z,101639.43
2018-05-27T00:53:56.305Z,101637.45
2018-05-27T00:56:31.647Z,101636.48
2018-05-27T00:59:06.606Z,101634.38
2018-05-27T01:01:41.845Z,101634.11
2018-05-27T01:04:16.548Z,101628.09
2018-05-27T01:06:51.782Z,101626.70
2018-05-27T01:09:26.822Z,101629.77
2018-05-27T01:12:02.031Z,101632.05
2018-05-27T01:14:37.374Z,101636.42
2018-05-27T01:17:12.750Z,101639.03
2018-05-27T01:19:47.877Z,101643.63
2018-05-27T01:22:23.183Z,101645.16
2018-05-27T01:24:58.357Z,101639.33
2018-05-27T01:27:33.688Z,101642.92
2018-05-27T01:30:09.154Z,101631.17
2018-05-27T01:32:44.589Z,101630.02
2018-05-27T01:35:20.033Z,101621.98
2018-05-27T01:37:54.845Z,101617.80
2018-05-27T01:40:29.584Z,101614.16
2018-05-27T01:43:04.789Z,101618.22
2018-05-27T01:45:39.779Z,101625.59
2018-05-27T01:48:14.352Z,101626.86
2018-05-27T01:50:49.549Z,101622.28
2018-05-27T01:53:24.572Z,101621.38
2018-05-27T01:55:59.941Z,101620.78
2018-05-27T01:58:34.569Z,101620.43
2018-05-27T02:01:09.397Z,101623.53
2018-05-27T02:03:44.829Z,101622.04
2018-05-27T02:06:19.358Z,101626.42
2018-05-27T02:08:54.162Z,101615.95
2018-05-27T02:11:29.513Z,101613.45
2018-05-27T02:14:03.813Z,101608.97
2018-05-27T02:16:38.393Z,101612.09
2018-05-27T02:19:12.882Z,101623.94
2018-05-27T02:21:48.316Z,101617.91
2018-05-27T02:24:23.793Z,101610.21
2018-05-27T02:26:59.169Z,101621.36
2018-05-27T02:29:34.333Z,101620.72
2018-05-27T02:32:10.125Z,101623.97
2018-05-27T02:34:44.942Z,101627.18
2018-05-27T02:37:20.191Z,101622.09
2018-05-27T02:39:55.333Z,101623.73
2018-05-27T02:42:30.548Z,101611.92
2018-05-27T02:45:04.428Z,101615.73
2018-05-27T02:47:39.566Z,101603.48
2018-05-27T02:50:14.377Z,101609.95
2018-05-27T02:52:49.145Z,101604.37
2018-05-27T02:55:24.077Z,101600.98
2018-05-27T02:57:58.825Z,101595.73
2018-05-27T03:00:33.565Z,101600.26
2018-05-27T03:03:08.787Z,101598.70
2018-05-27T03:05:43.841Z,101597.26
2018-05-27T03:08:18.841Z,101599.11
2018-05-27T03:10:54.002Z,101602.06
2018-05-27T03:13:29.048Z,101606.15
2018-05-27T03:16:04.409Z,101607.36
2018-05-27T03:18:39.616Z,101605.70
2018-05-27T03:21:14.688Z,101613.52
2018-05-27T03:23:49.952Z,101611.80
2018-05-27T03:26:24.935Z,101605.79
2018-05-27T03:29:00.016Z,101597.41
2018-05-27T03:31:35.012Z,101599.12
2018-05-27T03:34:10.215Z,101595.61
2018-05-27T03:36:45.445Z,101604.63
2018-05-27T03:39:20.819Z,101601.06
2018-05-27T03:41:55.985Z,101595.81
2018-05-27T03:44:31.041Z,101599.53
2018-05-27T03:47:06.454Z,101609.22
2018-05-27T03:49:41.184Z,101610.78
2018-05-27T03:52:15.584Z,101616.86
2018-05-27T03:54:50.449Z,101613.91
2018-05-27T03:57:26.033Z,101611.19
2018-05-27T04:00:03.006Z,101613.09
2018-05-27T04:02:38.007Z,101616.84
2018-05-27T04:18:47.265Z,101622.18
2018-05-27T04:21:22.205Z,101626.39
2018-05-27T04:23:57.025Z,101636.94
2018-05-27T04:26:31.915Z,101631.10
2018-05-27T04:29:06.673Z,101633.56
2018-05-27T04:31:45.307Z,101635.42
2018-05-27T04:34:20.208Z,101635.20
2018-05-27T04:36:56.201Z,101626.45
2018-05-27T04:39:30.807Z,101623.92
2018-05-27T04:42:05.614Z,101614.88
2018-05-27T04:44:41.191Z,101611.51
2018-05-27T04:47:16.019Z,101612.13
2018-05-27T04:49:50.722Z,101608.76
2018-05-27T04:52:25.372Z,101606.11
2018-05-27T04:55:00.155Z,101610.17
2018-05-27T04:57:34.900Z,101600.54
2018-05-27T05:00:09.809Z,101599.01
2018-05-27T05:02:44.565Z,101605.95
2018-05-27T05:05:19.241Z,101601.86
2018-05-27T05:07:54.249Z,101599.56
2018-05-27T05:10:29.001Z,101598.84
2018-05-27T05:13:03.906Z,101594.23
2018-05-27T05:15:38.646Z,101597.20
2018-05-27T05:18:13.687Z,101602.41
2018-05-27T05:20:48.497Z,101601.92
2018-05-27T05:23:23.242Z,101604.38
2018-05-27T05:25:58.073Z,101602.50
2018-05-27T05:28:33.125Z,101603.85
2018-05-27T05:31:08.108Z,101599.31
2018-05-27T05:33:43.081Z,101600.06
2018-05-27T05:36:17.970Z,101597.61
2018-05-27T05:38:52.569Z,101596.44
2018-05-27T05:41:27.600Z,101603.08
2018-05-27T05:44:02.217Z,101607.23
2018-05-27T05:46:36.916Z,101613.05
2018-05-27T05:49:11.864Z,101611.44
2018-05-27T05:51:46.676Z,101600.48
2018-05-27T05:54:21.437Z,101605.70
2018-05-27T05:56:56.228Z,101611.20
2018-05-27T05:59:30.969Z,101617.70
2018-05-27T06:02:05.650Z,101629.95
2018-05-27T06:04:40.655Z,101626.58
2018-05-27T06:07:15.464Z,101621.70
2018-05-27T06:09:50.323Z,101619.91
2018-05-27T06:12:25.225Z,101618.56
2018-05-27T06:15:00.173Z,101621.27
2018-05-27T06:17:34.820Z,101626.65
2018-05-27T06:20:09.721Z,101627.39
2018-05-27T06:22:44.562Z,101624.72
2018-05-27T06:25:19.491Z,101619.36
2018-05-27T06:27:54.326Z,101610.50
2018-05-27T06:30:29.293Z,101617.97
2018-05-27T06:33:04.183Z,101617.83
2018-05-27T06:35:39.033Z,101623.51
2018-05-27T06:38:13.853Z,101631.35
2018-05-27T06:40:48.866Z,101631.56
2018-05-27T06:43:23.913Z,101630.02
2018-05-27T06:45:58.535Z,101631.97
2018-05-27T06:48:33.380Z,101635.23
2018-05-27T06:51:08.148Z,101640.84
2018-05-27T06:53:43.689Z,101634.15
2018-05-27T06:56:18.392Z,101630.82
2018-05-27T06:58:53.349Z,101637.88
2018-05-27T07:01:28.097Z,101631.47
2018-05-27T07:04:02.857Z,101638.63
2018-05-27T07:06:37.649Z,101626.30
2018-05-27T07:09:13.163Z,101622.70
2018-05-27T07:11:47.930Z,101614.22
2018-05-27T07:14:22.721Z,101621.80
2018-05-27T07:16:57.540Z,101616.44
2018-05-27T07:19:32.439Z,101614.62
2018-05-27T07:22:07.448Z,101619.94
2018-05-27T07:24:42.165Z,101610.70
2018-05-27T07:27:16.990Z,101614.20
2018-05-27T07:29:51.906Z,101601.40
2018-05-27T07:32:26.653Z,101602.00
2018-05-27T07:35:01.543Z,101599.86
2018-05-27T07:37:36.441Z,101599.37
2018-05-27T07:40:11.244Z,101598.66
2018-05-27T07:42:46.204Z,101598.55
2018-05-27T07:45:21.096Z,101600.07
2018-05-27T07:47:55.821Z,101602.04
2018-05-27T07:50:30.893Z,101594.80
2018-05-27T07:53:05.495Z,101594.27
2018-05-27T07:55:40.434Z,101599.10
2018-05-27T07:58:15.332Z,101598.91
2018-05-27T08:00:50.109Z,101594.24
2018-05-27T08:03:24.701Z,101600.17
2018-05-27T08:05:59.561Z,101592.88
2018-05-27T08:08:34.405Z,101590.95
2018-05-27T08:11:09.382Z,101587.48
2018-05-27T08:13:44.233Z,101586.60
2018-05-27T08:16:18.989Z,101591.52
2018-05-27T08:18:53.710Z,101583.64
2018-05-27T08:21:28.446Z,101589.48
2018-05-27T08:24:03.150Z,101585.68
2018-05-27T08:26:37.853Z,101582.83
2018-05-27T08:29:12.514Z,101579.56
2018-05-27T08:31:47.448Z,101591.66
2018-05-27T08:34:22.943Z,101582.72
2018-05-27T08:36:58.137Z,101583.39
2018-05-27T08:39:32.965Z,101591.57
2018-05-27T08:42:07.794Z,101586.52
2018-05-27T08:44:42.529Z,101584.42
2018-05-27T08:47:17.381Z,101579.94
2018-05-27T08:49:52.183Z,101580.14
2018-05-27T08:52:27.029Z,101581.05
2018-05-27T08:55:01.817Z,101572.91
2018-05-27T08:57:36.699Z,101582.34
2018-05-27T09:00:11.998Z,101580.89
2018-05-27T09:02:46.717Z,101580.02
2018-05-27T09:05:21.377Z,101571.15
2018-05-27T09:07:56.109Z,101566.41
2018-05-27T09:10:30.897Z,101569.20
2018-05-27T09:13:05.660Z,101572.82
2018-05-27T09:15:40.387Z,101564.11
2018-05-27T09:18:15.270Z,101563.16
2018-05-27T09:20:50.168Z,101564.81
2018-05-27T09:23:24.877Z,101563.75
2018-05-27T09:25:59.788Z,101566.41
2018-05-27T09:28:34.601Z,101563.31
2018-05-27T09:31:09.077Z,101565.80
2018-05-27T09:33:43.869Z,101557.90
2018-05-27T09:36:18.784Z,101551.12
2018-05-27T09:38:53.650Z,101545.23
2018-05-27T09:41:28.500Z,101541.87
2018-05-27T09:44:03.296Z,101538.16
2018-05-27T09:46:38.458Z,101543.92
2018-05-27T09:49:13.198Z,101541.96
2018-05-27T09:51:47.824Z,101539.73
2018-05-27T09:54:22.859Z,101537.95
2018-05-27T09:56:57.802Z,101535.68
2018-05-27T09:59:32.584Z,101534.69
2018-05-27T10:02:07.786Z,101543.33
2018-05-27T10:04:42.768Z,101531.06
2018-05-27T10:07:17.592Z,101528.98
2018-05-27T10:09:52.578Z,101539.40
2018-05-27T10:12:27.403Z,101534.71
2018-05-27T10:15:02.133Z,101531.75
2018-05-27T10:17:36.901Z,101528.86
2018-05-27T10:20:11.888Z,101521.53
2018-05-27T10:22:46.837Z,101517.69
2018-05-27T10:25:21.580Z,101518.33
2018-05-27T10:27:56.502Z,101514.16
2018-05-27T10:30:31.454Z,101507.61
2018-05-27T10:33:06.413Z,101507.17
2018-05-27T10:35:41.013Z,101503.33
2018-05-27T10:38:15.706Z,101513.08
2018-05-27T10:40:50.849Z,101499.02
2018-05-27T10:43:25.574Z,101496.75
2018-05-27T10:46:00.596Z,101491.47
2018-05-27T10:48:35.047Z,101497.77
2018-05-27T10:51:10.158Z,101499.84
2018-05-27T10:53:44.773Z,101501.25
2018-05-27T10:56:19.716Z,101495.13
2018-05-27T10:58:54.602Z,101489.16
2018-05-27T11:01:29.214Z,101478.64
2018-05-27T11:04:04.042Z,101478.02
2018-05-27T11:06:38.849Z,101472.23
2018-05-27T11:09:13.732Z,101465.97
2018-05-27T11:11:48.608Z,101469.43
2018-05-27T11:14:23.249Z,101469.23
2018-05-27T11:16:58.066Z,101472.66
2018-05-27T11:19:32.714Z,101462.88
2018-05-27T11:22:07.666Z,101459.37
2018-05-27T11:24:43.108Z,101451.53
2018-05-27T11:27:18.146Z,101438.36
2018-05-27T11:29:53.066Z,101440.75
2018-05-27T11:32:27.785Z,101437.30
2018-05-27T11:35:02.282Z,101437.44
2018-05-27T11:37:40.281Z,101425.98
2018-05-27T11:40:14.945Z,101425.02
2018-05-27T11:42:49.970Z,101427.39
2018-05-27T11:45:24.556Z,101422.67
2018-05-27T11:47:59.529Z,101421.77
2018-05-27T11:50:34.438Z,101409.66
2018-05-27T11:53:09.714Z,101413.30
2018-05-27T11:55:44.418Z,101407.26
2018-05-27T11:58:19.570Z,101402.07
2018-05-27T12:00:54.803Z,101408.16
2018-05-27T12:03:29.476Z,101399.80
2018-05-27T12:06:04.404Z,101408.64
2018-05-27T12:08:39.243Z,101396.09
2018-05-27T12:11:13.769Z,101408.14
2018-05-27T12:13:48.688Z,101399.30
2018-05-27T12:16:23.577Z,101400.28
2018-05-27T12:18:58.644Z,101396.73
2018-05-27T12:21:33.482Z,101391.03
2018-05-27T12:24:08.450Z,101388.67
2018-05-27T12:26:43.364Z,101388.86
2018-05-27T12:29:18.090Z,101385.98
2018-05-27T12:31:53.194Z,101390.98
2018-05-27T12:34:28.228Z,101392.09
2018-05-27T12:37:03.561Z,101390.80
2018-05-27T12:39:38.804Z,101384.23
2018-05-27T12:42:13.649Z,101383.16
2018-05-27T12:44:48.704Z,101381.19
2018-05-27T12:47:23.380Z,101385.54
2018-05-27T12:49:57.861Z,101376.67
2018-05-27T12:52:32.989Z,101383.51
2018-05-27T12:55:08.002Z,101369.61
2018-05-27T12:57:42.827Z,101375.15
2018-05-27T13:00:17.648Z,101370.56
2018-05-27T13:02:52.699Z,101361.35
2018-05-27T13:05:27.841Z,101362.84
2018-05-27T13:08:02.324Z,101358.09
2018-05-27T13:10:37.478Z,101356.56
2018-05-27T13:13:12.641Z,101363.78
2018-05-27T13:15:47.661Z,101360.00
2018-05-27T13:18:22.709Z,101353.89
2018-05-27T13:20:57.953Z,101351.25
2018-05-27T13:23:32.777Z,101351.20
2018-05-27T13:26:07.476Z,101347.78
2018-05-27T13:28:42.444Z,101342.22
2018-05-27T13:31:17.145Z,101344.08
2018-05-27T13:33:51.925Z,101339.38
2018-05-27T13:36:26.840Z,101331.61
2018-05-27T13:39:01.738Z,101326.59
2018-05-27T13:41:36.688Z,101324.02
2018-05-27T13:44:11.541Z,101322.76
2018-05-27T13:46:46.372Z,101321.02
2018-05-27T13:49:21.420Z,101314.87
2018-05-27T13:51:56.282Z,101311.95
2018-05-27T13:54:31.429Z,101300.64
2018-05-27T13:57:06.340Z,101298.11
2018-05-27T13:59:41.134Z,101287.50
2018-05-27T14:02:15.955Z,101292.58
2018-05-27T14:04:50.845Z,101288.17
2018-05-27T14:07:25.500Z,101286.91
2018-05-27T14:10:00.409Z,101288.11
2018-05-27T14:12:35.187Z,101300.03
2018-05-27T14:15:09.407Z,101284.35
2018-05-27T14:17:44.517Z,101286.41
2018-05-27T14:20:19.575Z,101279.19
2018-05-27T14:22:54.361Z,101283.19
2018-05-27T14:25:29.376Z,101278.28
2018-05-27T14:28:04.172Z,101283.34
2018-05-27T14:30:38.537Z,101285.05
2018-05-27T14:33:13.994Z,101288.67
2018-05-27T14:35:48.885Z,101280.89
2018-05-27T14:38:24.017Z,101279.92
2018-05-27T14:40:58.817Z,101281.37
2018-05-27T14:43:33.625Z,101278.52
2018-05-27T14:46:08.409Z,101286.52
2018-05-27T14:48:43.227Z,101288.27
2018-05-27T14:51:18.089Z,101287.06
2018-05-27T14:53:53.095Z,101280.85
2018-05-27T14:56:27.977Z,101285.06
2018-05-27T14:59:02.826Z,101273.45
2018-05-27T15:01:37.780Z,101272.64
2018-05-27T15:04:12.931Z,101272.89
2018-05-27T15:06:47.609Z,101269.77
2018-05-27T15:09:22.412Z,101259.14
2018-05-27T15:11:57.431Z,101265.51
2018-05-27T15:14:32.349Z,101264.39
2018-05-27T15:17:07.252Z,101266.39
2018-05-27T15:19:42.294Z,101274.44
2018-05-27T15:22:16.847Z,101271.15
2018-05-27T15:24:52.092Z,101265.28
2018-05-27T15:27:26.836Z,101267.42
2018-05-27T15:30:01.841Z,101265.53
2018-05-27T15:32:36.801Z,101266.22
2018-05-27T15:35:11.949Z,101274.52
2018-05-27T15:37:46.657Z,101274.98
2018-05-27T15:40:21.476Z,101274.15
2018-05-27T15:42:56.285Z,101277.77
2018-05-27T15:45:31.253Z,101279.80
2018-05-27T15:48:05.860Z,101270.63
2018-05-27T15:50:40.824Z,101273.27
2018-05-27T15:53:15.709Z,101274.52
2018-05-27T15:55:50.777Z,101268.57
2018-05-27T15:58:25.725Z,101270.33
2018-05-27T16:01:00.644Z,101262.71
2018-05-27T16:03:35.453Z,101258.75
2018-05-27T16:06:10.426Z,101255.93
2018-05-27T16:08:45.180Z,101257.39
2018-05-27T16:11:20.009Z,101245.14
2018-05-27T16:13:54.966Z,101250.64
2018-05-27T16:16:29.845Z,101247.23
2018-05-27T16:19:04.312Z,101236.26
2018-05-27T16:21:39.244Z,101227.19
2018-05-27T16:24:14.359Z,101231.66
2018-05-27T16:26:49.152Z,101223.30
2018-05-27T16:29:23.803Z,101218.86
2018-05-27T16:31:58.511Z,101215.38
2018-05-27T16:34:33.248Z,101212.11
2018-05-27T16:37:08.239Z,101214.31
2018-05-27T16:39:43.433Z,101214.75
2018-05-27T16:42:18.149Z,101211.66
2018-05-27T16:44:53.593Z,101218.62
2018-05-27T16:47:28.690Z,101217.70
2018-05-27T16:53:00.941Z,101228.64
2018-05-27T16:55:35.532Z,101236.80
2018-05-27T16:58:10.689Z,101236.74
2018-05-27T17:00:45.340Z,101231.76
2018-05-27T17:03:20.005Z,101236.63
2018-05-27T17:05:54.826Z,101238.16
2018-05-27T17:08:38.816Z,101239.02
2018-05-27T17:11:13.256Z,101240.30
2018-05-27T17:13:47.964Z,101242.53
2018-05-27T17:16:22.768Z,101246.28
2018-05-27T17:18:57.608Z,101247.34
2018-05-27T17:21:32.867Z,101256.52
2018-05-27T17:24:07.905Z,101258.44
2018-05-27T17:26:42.609Z,101260.45
2018-05-27T17:29:17.911Z,101259.09
2018-05-27T17:31:52.671Z,101251.22
2018-05-27T17:34:27.621Z,101249.60
2018-05-27T17:37:02.520Z,101248.98
2018-05-27T17:39:37.761Z,101244.93
2018-05-27T17:42:12.549Z,101248.42
2018-05-27T17:44:47.609Z,101267.98
2018-05-27T17:47:22.995Z,101267.16
2018-05-27T17:49:58.249Z,101278.26
2018-05-27T17:52:33.492Z,101273.67
2018-05-27T17:55:08.849Z,101285.84
2018-05-27T17:57:43.672Z,101287.87
2018-05-27T18:00:18.549Z,101289.33
2018-05-27T18:02:53.483Z,101292.67
2018-05-27T18:05:28.593Z,101293.09
2018-05-27T18:08:03.383Z,101287.36
2018-05-27T18:10:38.128Z,101288.31
2018-05-27T18:13:14.526Z,101281.92
2018-05-27T18:15:49.897Z,101281.42
2018-05-27T18:18:25.281Z,101289.31
2018-05-27T18:21:00.629Z,101287.09
2018-05-27T18:23:35.841Z,101284.16
2018-05-27T18:26:10.664Z,101293.74
2018-05-27T18:28:45.497Z,101292.14
2018-05-27T18:31:20.531Z,101286.28
2018-05-27T18:33:55.305Z,101285.63
2018-05-27T18:36:30.109Z,101285.72
2018-05-27T18:39:04.172Z,101270.98
2018-05-27T18:41:40.050Z,101260.01
2018-05-27T18:44:14.454Z,101263.75
2018-05-27T18:46:49.368Z,101262.87
2018-05-27T18:49:24.486Z,101263.34
2018-05-27T18:51:59.925Z,101262.67
2018-05-27T18:54:37.521Z,101263.51
2018-05-27T18:57:12.108Z,101267.73
2018-05-27T18:59:46.994Z,101265.38
2018-05-27T19:02:21.924Z,101271.16
2018-05-27T19:04:56.828Z,101277.94
2018-05-27T19:07:31.805Z,101280.36
2018-05-27T19:10:06.641Z,101292.95
2018-05-27T19:12:41.528Z,101290.22
2018-05-27T19:15:16.078Z,101302.03
2018-05-27T19:17:51.205Z,101302.28
2018-05-27T19:20:26.874Z,101304.96
2018-05-27T19:23:01.625Z,101312.83
2018-05-27T19:25:36.441Z,101321.48
2018-05-27T19:28:11.233Z,101320.70
2018-05-27T19:30:46.080Z,101323.82
2018-05-27T19:33:20.984Z,101327.02
2018-05-27T19:35:55.980Z,101322.26
2018-05-27T19:38:31.009Z,101318.02
2018-05-27T19:41:05.738Z,101320.52
2018-05-27T19:43:40.660Z,101316.97
2018-05-27T19:46:15.300Z,101321.86
2018-05-27T19:48:50.072Z,101327.53
2018-05-27T19:51:25.040Z,101332.63
2018-05-27T19:54:00.160Z,101329.66
2018-05-27T19:56:35.049Z,101330.67
2018-05-27T19:59:09.858Z,101331.89
2018-05-27T20:01:44.796Z,101334.91
2018-05-27T20:04:19.312Z,101347.70
2018-05-27T20:06:54.349Z,101354.12
2018-05-27T20:09:29.390Z,101354.92
2018-05-27T20:12:04.328Z,101360.08
2018-05-27T20:14:39.145Z,101357.12
2018-05-27T20:17:14.692Z,101355.52
2018-05-27T20:19:49.428Z,101349.84
2018-05-27T20:22:24.897Z,101350.80
2018-05-27T20:25:00.456Z,101349.42
2018-05-27T20:27:35.360Z,101344.86
2018-05-27T20:30:10.289Z,101342.59
2018-05-27T20:32:44.955Z,101335.40
2018-05-27T20:35:19.738Z,101340.95
2018-05-27T20:37:54.973Z,101337.98
2018-05-27T20:40:29.921Z,101325.93
2018-05-27T20:43:04.720Z,101335.84
2018-05-27T20:45:39.404Z,101322.30
2018-05-27T20:48:14.626Z,101333.81
2018-05-27T20:50:49.308Z,101333.27
2018-05-27T20:53:24.564Z,101335.03
2018-05-27T20:55:59.829Z,101344.27
2018-05-27T20:58:34.977Z,101343.28
2018-05-27T21:01:09.816Z,101339.02
2018-05-27T21:03:44.837Z,101339.98
2018-05-27T21:06:20.051Z,101339.86
2018-05-27T21:08:54.822Z,101339.52
2018-05-27T21:11:29.295Z,101341.91
2018-05-27T21:14:03.883Z,101341.17
2018-05-27T21:16:39.197Z,101335.05
2018-05-27T21:19:14.159Z,101341.95
2018-05-27T21:21:49.106Z,101341.12
2018-05-27T21:24:24.165Z,101344.56
2018-05-27T21:26:58.908Z,101349.08
2018-05-27T21:29:33.797Z,101345.25
2018-05-27T21:32:08.753Z,101348.44
2018-05-27T21:34:44.483Z,101350.80
2018-05-27T21:37:18.899Z,101350.16
2018-05-27T21:39:54.009Z,101356.09
2018-05-27T21:42:28.529Z,101360.70
2018-05-27T21:45:03.247Z,101359.63
2018-05-27T21:47:38.089Z,101367.00
2018-05-27T21:50:12.284Z,101366.88
2018-05-27T21:52:46.788Z,101370.73
2018-05-27T21:55:21.762Z,101371.72
2018-05-27T21:57:56.562Z,101375.42
2018-05-27T22:00:32.065Z,101375.14
2018-05-27T22:03:06.524Z,101376.20
2018-05-27T22:05:41.454Z,101373.30
2018-05-27T22:08:16.148Z,101367.28
2018-05-27T22:10:50.942Z,101371.06
2018-05-27T22:13:25.801Z,101366.36
2018-05-27T22:16:00.814Z,101369.69
2018-05-27T22:18:36.066Z,101379.03
2018-05-27T22:21:10.883Z,101369.53
2018-05-27T22:23:45.741Z,101360.27
2018-05-27T22:26:20.477Z,101362.51
2018-05-27T22:28:55.297Z,101360.78
2018-05-27T22:31:30.117Z,101360.37
2018-05-27T22:34:04.819Z,101356.68
2018-05-27T22:36:39.694Z,101361.84
2018-05-27T22:39:14.514Z,101363.55
2018-05-27T22:41:49.274Z,101356.28
2018-05-27T22:44:24.245Z,101356.72
2018-05-27T22:46:59.181Z,101362.80
2018-05-27T22:49:34.228Z,101352.34
2018-05-27T22:52:09.472Z,101346.15
2018-05-27T22:54:44.224Z,101342.38
2018-05-27T22:57:19.023Z,101343.00
2018-05-27T22:59:53.978Z,101341.78
2018-05-27T23:02:28.577Z,101339.91
2018-05-27T23:05:03.579Z,101339.39
2018-05-27T23:07:38.492Z,101346.33
2018-05-27T23:10:13.458Z,101355.33
2018-05-27T23:12:48.438Z,101367.22
2018-05-27T23:15:23.449Z,101356.06
2018-05-27T23:17:58.380Z,101355.34
2018-05-27T23:20:33.121Z,101355.23
2018-05-27T23:23:07.984Z,101358.97
2018-05-27T23:25:42.805Z,101345.69
2018-05-27T23:28:17.704Z,101343.33
2018-05-27T23:30:52.557Z,101336.91
2018-05-27T23:33:27.151Z,101321.72
2018-05-27T23:36:02.097Z,101311.17
2018-05-27T23:38:36.916Z,101302.80
2018-05-27T23:41:11.849Z,101301.17
2018-05-27T23:43:46.806Z,101298.95
2018-05-27T23:46:21.761Z,101307.67
2018-05-27T23:48:56.700Z,101309.80
2018-05-27T23:51:31.769Z,101314.52
2018-05-27T23:54:06.556Z,101315.79
2018-05-27T23:56:41.574Z,101323.64
2018-05-27T23:59:16.421Z,101328.05
